sensor_id;sensor_type;location;lat;lon;timestamp;noise_LAeq;noise_LA_min;noise_LA_max;noise_LA01;noise_LA95
73206;Laerm;61415;55.702;37.460;2023-02-10T00:00:27;60.73;56.26;66.14;;
73206;Laerm;61415;55.702;37.460;2023-02-10T00:01:07;60.19;54.86;66.96;;
73206;Laerm;61415;55.702;37.460;2023-02-10T00:01:38;63.78;54.98;76.68;;
73206;Laerm;61415;55.702;37.460;2023-02-10T00:02:09;66.56;60.30;74.95;;
73206;Laerm;61415;55.702;37.460;2023-02-10T00:02:40;59.28;54.26;63.75;;
73206;Laerm;61415;55.702;37.460;2023-02-10T00:03:10;59.54;53.82;63.96;;
73206;Laerm;61415;55.702;37.460;2023-02-10T00:03:41;62.04;56.69;66.12;;
73206;Laerm;61415;55.702;37.460;2023-02-10T00:04:12;62.78;59.04;66.36;;
73206;Laerm;61415;55.702;37.460;2023-02-10T00:04:43;61.12;55.12;65.70;;
73206;Laerm;61415;55.702;37.460;2023-02-10T00:05:14;65.41;58.03;70.78;;
73206;Laerm;61415;55.702;37.460;2023-02-10T00:05:45;60.19;54.53;65.04;;
73206;Laerm;61415;55.702;37.460;2023-02-10T00:06:16;61.31;57.14;66.26;;
73206;Laerm;61415;55.702;37.460;2023-02-10T00:06:47;64.07;57.36;69.45;;
73206;Laerm;61415;55.702;37.460;2023-02-10T00:07:18;64.22;59.89;68.86;;
73206;Laerm;61415;55.702;37.460;2023-02-10T00:07:48;64.93;58.90;71.58;;
73206;Laerm;61415;55.702;37.460;2023-02-10T00:08:19;64.34;56.96;70.02;;
73206;Laerm;61415;55.702;37.460;2023-02-10T00:08:51;60.20;55.90;65.28;;
73206;Laerm;61415;55.702;37.460;2023-02-10T00:09:22;60.04;55.42;63.70;;
73206;Laerm;61415;55.702;37.460;2023-02-10T00:09:53;60.74;56.70;67.11;;
73206;Laerm;61415;55.702;37.460;2023-02-10T00:10:24;66.29;58.02;73.16;;
73206;Laerm;61415;55.702;37.460;2023-02-10T00:11:01;60.19;54.70;66.52;;
73206;Laerm;61415;55.702;37.460;2023-02-10T00:11:32;68.71;58.48;75.54;;
73206;Laerm;61415;55.702;37.460;2023-02-10T00:12:22;60.31;56.50;65.26;;
73206;Laerm;61415;55.702;37.460;2023-02-10T00:12:53;66.40;55.89;74.75;;
73206;Laerm;61415;55.702;37.460;2023-02-10T00:13:24;60.01;55.25;65.47;;
73206;Laerm;61415;55.702;37.460;2023-02-10T00:13:55;60.94;57.81;68.55;;
73206;Laerm;61415;55.702;37.460;2023-02-10T00:14:26;60.47;56.28;67.20;;
73206;Laerm;61415;55.702;37.460;2023-02-10T00:14:57;60.04;55.35;64.77;;
73206;Laerm;61415;55.702;37.460;2023-02-10T00:15:28;62.64;58.05;67.76;;
73206;Laerm;61415;55.702;37.460;2023-02-10T00:15:59;63.49;58.02;68.89;;
73206;Laerm;61415;55.702;37.460;2023-02-10T00:16:30;61.31;57.16;64.74;;
73206;Laerm;61415;55.702;37.460;2023-02-10T00:17:01;61.59;56.90;67.79;;
73206;Laerm;61415;55.702;37.460;2023-02-10T00:17:32;61.44;58.38;64.19;;
73206;Laerm;61415;55.702;37.460;2023-02-10T00:18:03;63.25;58.41;68.28;;
73206;Laerm;61415;55.702;37.460;2023-02-10T00:18:34;63.85;58.28;67.92;;
73206;Laerm;61415;55.702;37.460;2023-02-10T00:19:05;64.06;58.64;68.63;;
73206;Laerm;61415;55.702;37.460;2023-02-10T00:19:35;62.36;58.23;65.39;;
73206;Laerm;61415;55.702;37.460;2023-02-10T00:20:06;60.34;55.42;64.51;;
73206;Laerm;61415;55.702;37.460;2023-02-10T00:20:38;64.23;57.39;71.28;;
73206;Laerm;61415;55.702;37.460;2023-02-10T00:21:13;59.32;55.39;62.40;;
73206;Laerm;61415;55.702;37.460;2023-02-10T00:21:44;61.81;55.87;66.27;;
73206;Laerm;61415;55.702;37.460;2023-02-10T00:22:15;60.13;55.57;64.44;;
73206;Laerm;61415;55.702;37.460;2023-02-10T00:22:46;62.86;56.00;68.06;;
73206;Laerm;61415;55.702;37.460;2023-02-10T00:23:17;61.69;55.52;67.95;;
73206;Laerm;61415;55.702;37.460;2023-02-10T00:23:47;59.29;54.71;63.37;;
73206;Laerm;61415;55.702;37.460;2023-02-10T00:24:19;63.10;57.18;68.70;;
73206;Laerm;61415;55.702;37.460;2023-02-10T00:24:50;64.72;59.71;69.44;;
73206;Laerm;61415;55.702;37.460;2023-02-10T00:25:20;60.98;55.66;65.06;;
73206;Laerm;61415;55.702;37.460;2023-02-10T00:25:51;60.63;56.17;66.00;;
73206;Laerm;61415;55.702;37.460;2023-02-10T00:26:22;60.00;56.05;64.47;;
73206;Laerm;61415;55.702;37.460;2023-02-10T00:26:53;60.57;56.15;66.20;;
73206;Laerm;61415;55.702;37.460;2023-02-10T00:27:23;63.33;59.71;66.88;;
73206;Laerm;61415;55.702;37.460;2023-02-10T00:27:54;66.29;57.55;72.17;;
73206;Laerm;61415;55.702;37.460;2023-02-10T00:28:25;61.13;54.98;66.01;;
73206;Laerm;61415;55.702;37.460;2023-02-10T00:28:56;62.50;58.13;66.58;;
73206;Laerm;61415;55.702;37.460;2023-02-10T00:29:26;64.59;55.62;73.63;;
73206;Laerm;61415;55.702;37.460;2023-02-10T00:29:58;64.39;57.97;70.49;;
73206;Laerm;61415;55.702;37.460;2023-02-10T00:30:28;63.49;58.00;68.08;;
73206;Laerm;61415;55.702;37.460;2023-02-10T00:31:04;65.22;58.14;70.83;;
73206;Laerm;61415;55.702;37.460;2023-02-10T00:31:35;64.61;58.60;72.22;;
73206;Laerm;61415;55.702;37.460;2023-02-10T00:32:06;63.61;59.12;67.11;;
73206;Laerm;61415;55.702;37.460;2023-02-10T00:32:36;60.82;56.15;68.26;;
73206;Laerm;61415;55.702;37.460;2023-02-10T00:33:10;60.01;54.64;65.49;;
73206;Laerm;61415;55.702;37.460;2023-02-10T00:33:41;60.13;54.55;63.75;;
73206;Laerm;61415;55.702;37.460;2023-02-10T00:34:13;60.66;54.63;64.82;;
73206;Laerm;61415;55.702;37.460;2023-02-10T00:34:44;59.24;55.03;63.50;;
73206;Laerm;61415;55.702;37.460;2023-02-10T00:35:15;62.79;58.10;68.87;;
73206;Laerm;61415;55.702;37.460;2023-02-10T00:35:46;63.24;58.25;67.96;;
73206;Laerm;61415;55.702;37.460;2023-02-10T00:36:17;63.38;57.89;67.86;;
73206;Laerm;61415;55.702;37.460;2023-02-10T00:36:48;60.78;56.11;66.42;;
73206;Laerm;61415;55.702;37.460;2023-02-10T00:37:19;64.12;59.42;67.48;;
73206;Laerm;61415;55.702;37.460;2023-02-10T00:37:50;62.65;56.71;69.69;;
73206;Laerm;61415;55.702;37.460;2023-02-10T00:38:21;61.69;56.56;67.48;;
73206;Laerm;61415;55.702;37.460;2023-02-10T00:38:52;59.76;56.06;64.43;;
73206;Laerm;61415;55.702;37.460;2023-02-10T00:39:23;61.46;56.10;65.61;;
73206;Laerm;61415;55.702;37.460;2023-02-10T00:39:53;57.57;52.83;62.54;;
73206;Laerm;61415;55.702;37.460;2023-02-10T00:40:25;58.68;54.04;63.02;;
73206;Laerm;61415;55.702;37.460;2023-02-10T00:41:01;63.04;53.61;70.24;;
73206;Laerm;61415;55.702;37.460;2023-02-10T00:41:31;63.59;57.02;68.82;;
73206;Laerm;61415;55.702;37.460;2023-02-10T00:42:02;61.68;58.08;65.48;;
73206;Laerm;61415;55.702;37.460;2023-02-10T00:42:33;60.68;54.89;65.44;;
73206;Laerm;61415;55.702;37.460;2023-02-10T00:43:04;58.04;54.87;62.49;;
73206;Laerm;61415;55.702;37.460;2023-02-10T00:43:35;63.29;56.87;67.23;;
73206;Laerm;61415;55.702;37.460;2023-02-10T00:44:06;62.44;58.62;65.76;;
73206;Laerm;61415;55.702;37.460;2023-02-10T00:44:37;59.91;53.74;65.24;;
73206;Laerm;61415;55.702;37.460;2023-02-10T00:45:08;58.99;54.10;63.22;;
73206;Laerm;61415;55.702;37.460;2023-02-10T00:45:39;57.76;53.03;62.36;;
73206;Laerm;61415;55.702;37.460;2023-02-10T00:46:10;62.57;55.72;68.91;;
73206;Laerm;61415;55.702;37.460;2023-02-10T00:46:41;60.16;55.75;64.38;;
73206;Laerm;61415;55.702;37.460;2023-02-10T00:47:12;62.30;56.39;68.26;;
73206;Laerm;61415;55.702;37.460;2023-02-10T00:47:43;58.46;54.60;63.09;;
73206;Laerm;61415;55.702;37.460;2023-02-10T00:48:13;57.87;53.39;62.21;;
73206;Laerm;61415;55.702;37.460;2023-02-10T00:48:44;58.48;53.52;63.33;;
73206;Laerm;61415;55.702;37.460;2023-02-10T00:49:15;62.47;56.77;67.26;;
73206;Laerm;61415;55.702;37.460;2023-02-10T00:49:46;64.61;55.90;71.15;;
73206;Laerm;61415;55.702;37.460;2023-02-10T00:50:17;62.01;57.31;67.06;;
73206;Laerm;61415;55.702;37.460;2023-02-10T00:50:47;60.40;55.16;66.43;;
73206;Laerm;61415;55.702;37.460;2023-02-10T00:51:18;61.64;57.01;65.76;;
73206;Laerm;61415;55.702;37.460;2023-02-10T00:51:49;63.36;57.77;67.44;;
73206;Laerm;61415;55.702;37.460;2023-02-10T00:52:20;61.21;55.23;65.74;;
73206;Laerm;61415;55.702;37.460;2023-02-10T00:52:51;62.14;56.32;65.93;;
73206;Laerm;61415;55.702;37.460;2023-02-10T00:53:22;58.81;55.02;64.98;;
73206;Laerm;61415;55.702;37.460;2023-02-10T00:53:53;57.63;53.37;61.18;;
73206;Laerm;61415;55.702;37.460;2023-02-10T00:54:23;57.14;53.19;60.21;;
73206;Laerm;61415;55.702;37.460;2023-02-10T00:54:54;60.76;53.86;66.43;;
73206;Laerm;61415;55.702;37.460;2023-02-10T00:55:25;56.01;50.75;59.95;;
73206;Laerm;61415;55.702;37.460;2023-02-10T00:55:56;58.25;53.20;62.63;;
73206;Laerm;61415;55.702;37.460;2023-02-10T00:56:26;60.81;55.52;66.05;;
73206;Laerm;61415;55.702;37.460;2023-02-10T00:56:57;61.94;57.75;66.53;;
73206;Laerm;61415;55.702;37.460;2023-02-10T00:57:28;60.71;55.48;65.98;;
73206;Laerm;61415;55.702;37.460;2023-02-10T00:57:59;57.27;53.66;61.91;;
73206;Laerm;61415;55.702;37.460;2023-02-10T00:58:29;58.40;53.90;65.09;;
73206;Laerm;61415;55.702;37.460;2023-02-10T00:59:00;58.47;54.58;65.28;;
73206;Laerm;61415;55.702;37.460;2023-02-10T00:59:31;59.88;54.37;65.05;;
73206;Laerm;61415;55.702;37.460;2023-02-10T01:00:02;62.06;57.07;68.13;;
73206;Laerm;61415;55.702;37.460;2023-02-10T01:00:33;61.46;55.89;68.98;;
73206;Laerm;61415;55.702;37.460;2023-02-10T01:01:04;64.96;58.97;68.88;;
73206;Laerm;61415;55.702;37.460;2023-02-10T01:01:35;65.17;59.20;71.64;;
73206;Laerm;61415;55.702;37.460;2023-02-10T01:02:06;61.28;56.51;72.58;;
73206;Laerm;61415;55.702;37.460;2023-02-10T01:02:37;64.65;56.59;73.81;;
73206;Laerm;61415;55.702;37.460;2023-02-10T01:03:08;66.75;60.34;73.17;;
73206;Laerm;61415;55.702;37.460;2023-02-10T01:03:38;62.18;55.51;69.05;;
73206;Laerm;61415;55.702;37.460;2023-02-10T01:04:09;62.07;56.55;67.23;;
73206;Laerm;61415;55.702;37.460;2023-02-10T01:04:40;61.36;56.03;67.82;;
73206;Laerm;61415;55.702;37.460;2023-02-10T01:05:11;63.89;58.52;69.44;;
73206;Laerm;61415;55.702;37.460;2023-02-10T01:05:42;65.28;56.01;69.90;;
73206;Laerm;61415;55.702;37.460;2023-02-10T01:06:13;58.52;54.96;64.68;;
73206;Laerm;61415;55.702;37.460;2023-02-10T01:06:44;58.43;54.84;63.39;;
73206;Laerm;61415;55.702;37.460;2023-02-10T01:07:15;58.05;54.59;63.16;;
73206;Laerm;61415;55.702;37.460;2023-02-10T01:07:46;61.69;58.04;67.88;;
73206;Laerm;61415;55.702;37.460;2023-02-10T01:08:17;61.74;54.70;67.61;;
73206;Laerm;61415;55.702;37.460;2023-02-10T01:08:48;62.23;55.74;68.56;;
73206;Laerm;61415;55.702;37.460;2023-02-10T01:09:19;61.05;56.98;64.94;;
73206;Laerm;61415;55.702;37.460;2023-02-10T01:09:50;61.59;54.86;66.17;;
73206;Laerm;61415;55.702;37.460;2023-02-10T01:10:20;58.77;53.37;69.21;;
73206;Laerm;61415;55.702;37.460;2023-02-10T01:11:01;61.08;56.29;66.41;;
73206;Laerm;61415;55.702;37.460;2023-02-10T01:11:32;65.46;59.45;71.59;;
73206;Laerm;61415;55.702;37.460;2023-02-10T01:12:03;62.58;55.92;68.12;;
73206;Laerm;61415;55.702;37.460;2023-02-10T01:12:34;60.53;55.76;65.58;;
73206;Laerm;61415;55.702;37.460;2023-02-10T01:13:05;62.70;58.31;66.71;;
73206;Laerm;61415;55.702;37.460;2023-02-10T01:13:36;61.76;55.28;66.51;;
73206;Laerm;61415;55.702;37.460;2023-02-10T01:14:07;61.25;56.62;65.90;;
73206;Laerm;61415;55.702;37.460;2023-02-10T01:14:38;61.11;56.43;64.55;;
73206;Laerm;61415;55.702;37.460;2023-02-10T01:15:09;58.18;54.18;62.35;;
73206;Laerm;61415;55.702;37.460;2023-02-10T01:15:41;56.85;53.90;60.07;;
73206;Laerm;61415;55.702;37.460;2023-02-10T01:16:12;59.50;53.98;64.99;;
73206;Laerm;61415;55.702;37.460;2023-02-10T01:16:43;66.95;57.57;73.48;;
73206;Laerm;61415;55.702;37.460;2023-02-10T01:17:14;62.99;56.72;67.33;;
73206;Laerm;61415;55.702;37.460;2023-02-10T01:17:45;61.93;56.69;69.85;;
73206;Laerm;61415;55.702;37.460;2023-02-10T01:18:16;62.80;58.49;66.91;;
73206;Laerm;61415;55.702;37.460;2023-02-10T01:18:46;60.94;55.98;65.42;;
73206;Laerm;61415;55.702;37.460;2023-02-10T01:19:17;58.72;53.23;62.85;;
73206;Laerm;61415;55.702;37.460;2023-02-10T01:19:48;64.84;54.05;70.97;;
73206;Laerm;61415;55.702;37.460;2023-02-10T01:20:21;62.59;58.13;68.77;;
73206;Laerm;61415;55.702;37.460;2023-02-10T01:20:52;60.20;54.82;66.62;;
73206;Laerm;61415;55.702;37.460;2023-02-10T01:21:23;63.89;56.73;67.87;;
73206;Laerm;61415;55.702;37.460;2023-02-10T01:21:53;62.36;54.55;68.89;;
73206;Laerm;61415;55.702;37.460;2023-02-10T01:22:24;65.36;58.55;70.04;;
73206;Laerm;61415;55.702;37.460;2023-02-10T01:22:55;67.17;58.37;73.31;;
73206;Laerm;61415;55.702;37.460;2023-02-10T01:23:26;61.75;56.86;66.40;;
73206;Laerm;61415;55.702;37.460;2023-02-10T01:23:56;65.07;59.42;68.75;;
73206;Laerm;61415;55.702;37.460;2023-02-10T01:24:27;61.44;56.24;67.78;;
73206;Laerm;61415;55.702;37.460;2023-02-10T01:24:58;66.10;56.56;73.52;;
73206;Laerm;61415;55.702;37.460;2023-02-10T01:25:29;59.44;54.15;65.10;;
73206;Laerm;61415;55.702;37.460;2023-02-10T01:26:00;62.51;58.15;66.61;;
73206;Laerm;61415;55.702;37.460;2023-02-10T01:26:31;60.38;55.53;65.54;;
73206;Laerm;61415;55.702;37.460;2023-02-10T01:27:02;59.74;54.51;65.15;;
73206;Laerm;61415;55.702;37.460;2023-02-10T01:27:32;59.45;55.02;64.58;;
73206;Laerm;61415;55.702;37.460;2023-02-10T01:28:03;62.61;57.89;67.69;;
73206;Laerm;61415;55.702;37.460;2023-02-10T01:28:38;62.78;57.19;72.07;;
73206;Laerm;61415;55.702;37.460;2023-02-10T01:29:09;62.78;56.13;71.17;;
73206;Laerm;61415;55.702;37.460;2023-02-10T01:29:39;59.29;53.44;64.86;;
73206;Laerm;61415;55.702;37.460;2023-02-10T01:30:10;60.32;55.83;66.53;;
73206;Laerm;61415;55.702;37.460;2023-02-10T01:30:41;62.77;58.32;67.12;;
73206;Laerm;61415;55.702;37.460;2023-02-10T01:31:13;63.15;59.40;67.44;;
73206;Laerm;61415;55.702;37.460;2023-02-10T01:31:44;61.47;58.40;65.44;;
73206;Laerm;61415;55.702;37.460;2023-02-10T01:32:15;62.61;59.11;67.13;;
73206;Laerm;61415;55.702;37.460;2023-02-10T01:32:46;61.23;56.72;67.15;;
73206;Laerm;61415;55.702;37.460;2023-02-10T01:33:17;61.67;56.58;66.62;;
73206;Laerm;61415;55.702;37.460;2023-02-10T01:33:51;59.51;54.42;66.03;;
73206;Laerm;61415;55.702;37.460;2023-02-10T01:34:23;61.09;55.07;67.76;;
73206;Laerm;61415;55.702;37.460;2023-02-10T01:34:54;62.99;57.01;67.12;;
73206;Laerm;61415;55.702;37.460;2023-02-10T01:35:25;60.49;55.86;64.61;;
73206;Laerm;61415;55.702;37.460;2023-02-10T01:35:55;58.56;53.94;63.38;;
73206;Laerm;61415;55.702;37.460;2023-02-10T01:36:26;61.89;53.75;65.95;;
73206;Laerm;61415;55.702;37.460;2023-02-10T01:36:57;61.76;58.39;65.32;;
73206;Laerm;61415;55.702;37.460;2023-02-10T01:37:27;59.22;55.84;63.05;;
73206;Laerm;61415;55.702;37.460;2023-02-10T01:37:58;63.80;59.75;67.19;;
73206;Laerm;61415;55.702;37.460;2023-02-10T01:38:29;64.27;56.90;69.85;;
73206;Laerm;61415;55.702;37.460;2023-02-10T01:39:00;61.65;57.70;66.96;;
73206;Laerm;61415;55.702;37.460;2023-02-10T01:39:31;61.91;55.64;65.58;;
73206;Laerm;61415;55.702;37.460;2023-02-10T01:40:02;59.30;54.63;63.63;;
73206;Laerm;61415;55.702;37.460;2023-02-10T01:40:33;60.19;56.33;63.62;;
73206;Laerm;61415;55.702;37.460;2023-02-10T01:41:04;63.80;57.11;68.80;;
73206;Laerm;61415;55.702;37.460;2023-02-10T01:41:35;66.07;57.71;72.33;;
73206;Laerm;61415;55.702;37.460;2023-02-10T01:42:08;64.12;58.21;68.17;;
73206;Laerm;61415;55.702;37.460;2023-02-10T01:42:39;58.40;54.50;62.06;;
73206;Laerm;61415;55.702;37.460;2023-02-10T01:43:13;65.95;57.79;75.55;;
73206;Laerm;61415;55.702;37.460;2023-02-10T01:45:52;64.12;55.98;70.78;;
73206;Laerm;61415;55.702;37.460;2023-02-10T01:46:23;61.11;56.42;66.26;;
73206;Laerm;61415;55.702;37.460;2023-02-10T01:46:54;64.81;59.72;69.86;;
73206;Laerm;61415;55.702;37.460;2023-02-10T01:47:25;63.42;59.24;67.66;;
73206;Laerm;61415;55.702;37.460;2023-02-10T01:47:56;62.08;54.47;69.12;;
73206;Laerm;61415;55.702;37.460;2023-02-10T01:48:27;63.72;59.11;66.97;;
73206;Laerm;61415;55.702;37.460;2023-02-10T01:49:00;63.45;59.78;67.49;;
73206;Laerm;61415;55.702;37.460;2023-02-10T01:49:32;59.40;55.13;64.67;;
73206;Laerm;61415;55.702;37.460;2023-02-10T01:50:04;62.07;57.01;68.11;;
73206;Laerm;61415;55.702;37.460;2023-02-10T01:50:37;60.85;57.17;64.77;;
73206;Laerm;61415;55.702;37.460;2023-02-10T01:51:08;58.57;52.61;62.69;;
73206;Laerm;61415;55.702;37.460;2023-02-10T01:51:54;63.93;55.69;68.93;;
73206;Laerm;61415;55.702;37.460;2023-02-10T01:52:27;62.22;57.13;67.73;;
73206;Laerm;61415;55.702;37.460;2023-02-10T01:53:00;62.85;58.78;67.36;;
73206;Laerm;61415;55.702;37.460;2023-02-10T01:53:31;62.28;58.34;67.02;;
73206;Laerm;61415;55.702;37.460;2023-02-10T01:54:02;61.93;55.75;70.51;;
73206;Laerm;61415;55.702;37.460;2023-02-10T01:54:35;61.22;55.62;66.36;;
73206;Laerm;61415;55.702;37.460;2023-02-10T01:55:12;61.50;56.61;66.91;;
73206;Laerm;61415;55.702;37.460;2023-02-10T01:55:45;60.71;56.62;65.37;;
73206;Laerm;61415;55.702;37.460;2023-02-10T01:56:17;62.21;57.39;66.80;;
73206;Laerm;61415;55.702;37.460;2023-02-10T01:56:48;59.56;54.78;63.79;;
73206;Laerm;61415;55.702;37.460;2023-02-10T01:57:19;60.40;54.31;65.15;;
73206;Laerm;61415;55.702;37.460;2023-02-10T01:57:50;65.14;56.42;71.95;;
73206;Laerm;61415;55.702;37.460;2023-02-10T01:58:25;61.89;58.13;66.00;;
73206;Laerm;61415;55.702;37.460;2023-02-10T01:58:57;68.55;61.35;73.15;;
73206;Laerm;61415;55.702;37.460;2023-02-10T01:59:29;64.27;59.45;68.53;;
73206;Laerm;61415;55.702;37.460;2023-02-10T02:00:02;62.02;56.74;68.30;;
73206;Laerm;61415;55.702;37.460;2023-02-10T02:00:33;66.92;59.70;75.54;;
73206;Laerm;61415;55.702;37.460;2023-02-10T02:01:04;66.52;61.49;70.72;;
73206;Laerm;61415;55.702;37.460;2023-02-10T02:01:35;70.35;63.18;77.76;;
73206;Laerm;61415;55.702;37.460;2023-02-10T02:02:06;63.86;58.28;70.46;;
73206;Laerm;61415;55.702;37.460;2023-02-10T02:02:37;62.66;57.71;67.14;;
73206;Laerm;61415;55.702;37.460;2023-02-10T02:03:09;63.20;57.57;66.91;;
73206;Laerm;61415;55.702;37.460;2023-02-10T02:03:40;66.64;59.58;72.19;;
73206;Laerm;61415;55.702;37.460;2023-02-10T02:04:11;65.11;60.07;70.78;;
73206;Laerm;61415;55.702;37.460;2023-02-10T02:04:46;61.89;56.94;66.48;;
73206;Laerm;61415;55.702;37.460;2023-02-10T02:05:27;65.20;58.29;72.35;;
73206;Laerm;61415;55.702;37.460;2023-02-10T02:05:59;63.04;58.41;68.79;;
73206;Laerm;61415;55.702;37.460;2023-02-10T02:06:30;64.05;58.85;69.31;;
73206;Laerm;61415;55.702;37.460;2023-02-10T02:07:01;64.68;58.44;69.02;;
73206;Laerm;61415;55.702;37.460;2023-02-10T02:07:34;62.16;57.43;66.63;;
73206;Laerm;61415;55.702;37.460;2023-02-10T02:08:11;61.77;57.25;64.90;;
73206;Laerm;61415;55.702;37.460;2023-02-10T02:08:44;60.03;56.28;63.95;;
73206;Laerm;61415;55.702;37.460;2023-02-10T02:09:15;64.95;58.30;70.46;;
73206;Laerm;61415;55.702;37.460;2023-02-10T02:09:46;64.02;58.16;69.93;;
73206;Laerm;61415;55.702;37.460;2023-02-10T02:10:17;63.76;57.74;69.69;;
73206;Laerm;61415;55.702;37.460;2023-02-10T02:13:04;63.77;58.00;69.35;;
73206;Laerm;61415;55.702;37.460;2023-02-10T02:15:06;64.09;56.72;69.46;;
73206;Laerm;61415;55.702;37.460;2023-02-10T02:15:47;61.12;57.00;64.86;;
73206;Laerm;61415;55.702;37.460;2023-02-10T02:18:45;63.54;55.45;69.81;;
73206;Laerm;61415;55.702;37.460;2023-02-10T02:24:45;62.43;57.18;66.10;;
73206;Laerm;61415;55.702;37.460;2023-02-10T02:25:30;62.47;57.91;66.42;;
73206;Laerm;61415;55.702;37.460;2023-02-10T02:32:06;62.34;57.20;66.98;;
73206;Laerm;61415;55.702;37.460;2023-02-10T02:32:39;63.12;55.36;67.19;;
73206;Laerm;61415;55.702;37.460;2023-02-10T02:33:14;63.88;54.86;70.54;;
73206;Laerm;61415;55.702;37.460;2023-02-10T02:33:48;61.34;56.24;65.68;;
73206;Laerm;61415;55.702;37.460;2023-02-10T02:34:42;63.37;59.52;66.85;;
73206;Laerm;61415;55.702;37.460;2023-02-10T02:35:12;64.04;57.61;68.86;;
73206;Laerm;61415;55.702;37.460;2023-02-10T02:35:47;63.85;58.13;69.53;;
73206;Laerm;61415;55.702;37.460;2023-02-10T02:36:20;64.64;58.09;68.89;;
73206;Laerm;61415;55.702;37.460;2023-02-10T02:36:54;66.19;62.67;70.04;;
73206;Laerm;61415;55.702;37.460;2023-02-10T02:37:28;65.80;62.26;69.40;;
73206;Laerm;61415;55.702;37.460;2023-02-10T02:37:59;66.16;62.02;69.37;;
73206;Laerm;61415;55.702;37.460;2023-02-10T02:38:30;64.94;61.57;68.19;;
73206;Laerm;61415;55.702;37.460;2023-02-10T02:39:02;66.59;61.00;72.47;;
73206;Laerm;61415;55.702;37.460;2023-02-10T02:39:33;63.80;58.83;68.09;;
73206;Laerm;61415;55.702;37.460;2023-02-10T02:40:04;64.02;58.37;70.13;;
73206;Laerm;61415;55.702;37.460;2023-02-10T02:40:35;66.99;63.36;70.12;;
73206;Laerm;61415;55.702;37.460;2023-02-10T02:41:07;64.73;60.11;69.46;;
73206;Laerm;61415;55.702;37.460;2023-02-10T02:41:38;64.44;60.69;69.14;;
73206;Laerm;61415;55.702;37.460;2023-02-10T02:42:21;62.17;57.74;66.61;;
73206;Laerm;61415;55.702;37.460;2023-02-10T02:42:53;66.48;58.74;73.65;;
73206;Laerm;61415;55.702;37.460;2023-02-10T02:43:23;67.70;63.22;70.49;;
73206;Laerm;61415;55.702;37.460;2023-02-10T02:43:54;65.10;61.65;69.72;;
73206;Laerm;61415;55.702;37.460;2023-02-10T02:44:26;64.34;59.10;68.67;;
73206;Laerm;61415;55.702;37.460;2023-02-10T02:44:59;66.25;59.10;73.80;;
73206;Laerm;61415;55.702;37.460;2023-02-10T02:45:44;63.76;58.22;69.07;;
73206;Laerm;61415;55.702;37.460;2023-02-10T02:48:07;66.23;61.18;71.03;;
73206;Laerm;61415;55.702;37.460;2023-02-10T02:50:11;65.67;59.69;70.51;;
73206;Laerm;61415;55.702;37.460;2023-02-10T02:50:51;63.96;59.69;68.73;;
73206;Laerm;61415;55.702;37.460;2023-02-10T02:52:12;63.39;60.45;66.47;;
73206;Laerm;61415;55.702;37.460;2023-02-10T02:54:48;65.60;61.96;68.77;;
73206;Laerm;61415;55.702;37.460;2023-02-10T02:56:30;65.32;61.22;69.04;;
73206;Laerm;61415;55.702;37.460;2023-02-10T02:57:07;64.83;59.45;68.00;;
73206;Laerm;61415;55.702;37.460;2023-02-10T02:59:10;65.80;61.47;73.70;;
73206;Laerm;61415;55.702;37.460;2023-02-10T02:59:46;65.35;60.48;71.56;;
73206;Laerm;61415;55.702;37.460;2023-02-10T03:00:19;66.15;60.90;71.84;;
73206;Laerm;61415;55.702;37.460;2023-02-10T03:00:53;65.20;59.38;74.27;;
73206;Laerm;61415;55.702;37.460;2023-02-10T03:01:29;63.64;59.31;67.08;;
73206;Laerm;61415;55.702;37.460;2023-02-10T03:02:06;64.05;58.90;68.72;;
73206;Laerm;61415;55.702;37.460;2023-02-10T03:02:38;67.02;60.36;74.41;;
73206;Laerm;61415;55.702;37.460;2023-02-10T03:03:11;66.60;62.50;70.73;;
73206;Laerm;61415;55.702;37.460;2023-02-10T03:03:42;66.07;59.82;71.48;;
73206;Laerm;61415;55.702;37.460;2023-02-10T03:04:13;65.18;60.32;71.67;;
73206;Laerm;61415;55.702;37.460;2023-02-10T03:04:45;65.37;62.41;68.60;;
73206;Laerm;61415;55.702;37.460;2023-02-10T03:05:18;65.67;62.09;69.44;;
73206;Laerm;61415;55.702;37.460;2023-02-10T03:05:49;65.24;60.30;69.59;;
73206;Laerm;61415;55.702;37.460;2023-02-10T03:06:20;63.25;59.03;67.59;;
73206;Laerm;61415;55.702;37.460;2023-02-10T03:06:51;64.99;57.99;75.36;;
73206;Laerm;61415;55.702;37.460;2023-02-10T03:07:21;67.03;63.38;71.70;;
73206;Laerm;61415;55.702;37.460;2023-02-10T03:07:52;66.61;61.17;70.62;;
73206;Laerm;61415;55.702;37.460;2023-02-10T03:08:23;66.60;61.91;70.82;;
73206;Laerm;61415;55.702;37.460;2023-02-10T03:08:54;64.81;61.23;68.20;;
73206;Laerm;61415;55.702;37.460;2023-02-10T03:09:25;62.37;58.62;66.78;;
73206;Laerm;61415;55.702;37.460;2023-02-10T03:09:56;66.15;61.18;69.91;;
73206;Laerm;61415;55.702;37.460;2023-02-10T03:10:27;67.39;62.91;72.31;;
73206;Laerm;61415;55.702;37.460;2023-02-10T03:10:58;66.26;60.51;70.08;;
73206;Laerm;61415;55.702;37.460;2023-02-10T03:11:29;66.32;59.61;70.59;;
73206;Laerm;61415;55.702;37.460;2023-02-10T03:11:59;66.10;61.85;69.90;;
73206;Laerm;61415;55.702;37.460;2023-02-10T03:12:30;66.03;62.60;70.81;;
73206;Laerm;61415;55.702;37.460;2023-02-10T03:13:01;65.87;59.63;71.08;;
73206;Laerm;61415;55.702;37.460;2023-02-10T03:13:32;64.49;60.96;68.53;;
73206;Laerm;61415;55.702;37.460;2023-02-10T03:14:03;65.42;60.46;69.93;;
73206;Laerm;61415;55.702;37.460;2023-02-10T03:14:34;68.68;62.74;73.01;;
73206;Laerm;61415;55.702;37.460;2023-02-10T03:15:05;70.18;62.91;80.47;;
73206;Laerm;61415;55.702;37.460;2023-02-10T03:15:35;66.41;62.65;70.05;;
73206;Laerm;61415;55.702;37.460;2023-02-10T03:16:06;63.71;60.57;70.18;;
73206;Laerm;61415;55.702;37.460;2023-02-10T03:16:37;63.77;58.92;69.51;;
73206;Laerm;61415;55.702;37.460;2023-02-10T03:17:08;67.85;64.00;70.56;;
73206;Laerm;61415;55.702;37.460;2023-02-10T03:17:39;68.30;64.57;71.34;;
73206;Laerm;61415;55.702;37.460;2023-02-10T03:18:10;68.02;64.69;71.19;;
73206;Laerm;61415;55.702;37.460;2023-02-10T03:18:41;66.25;60.73;70.21;;
73206;Laerm;61415;55.702;37.460;2023-02-10T03:19:12;67.75;62.95;71.74;;
73206;Laerm;61415;55.702;37.460;2023-02-10T03:19:43;67.75;63.67;71.39;;
73206;Laerm;61415;55.702;37.460;2023-02-10T03:20:13;67.08;62.03;70.66;;
73206;Laerm;61415;55.702;37.460;2023-02-10T03:20:44;67.44;62.58;72.56;;
73206;Laerm;61415;55.702;37.460;2023-02-10T03:21:15;66.48;62.91;70.22;;
73206;Laerm;61415;55.702;37.460;2023-02-10T03:21:46;66.39;63.13;69.40;;
73206;Laerm;61415;55.702;37.460;2023-02-10T03:22:17;66.85;63.82;70.94;;
73206;Laerm;61415;55.702;37.460;2023-02-10T03:22:48;68.34;64.38;71.94;;
73206;Laerm;61415;55.702;37.460;2023-02-10T03:23:19;65.54;61.45;72.65;;
73206;Laerm;61415;55.702;37.460;2023-02-10T03:23:49;66.88;63.40;73.59;;
73206;Laerm;61415;55.702;37.460;2023-02-10T03:24:20;70.77;66.81;75.03;;